Helas — C4AZ2 — position and weather

sailwx.info

Track history (hours):
 
Tides and Currents Weather Stations Pressure Air Temp Water Temp Dewpoint Dewpoint Depression Visibility Wind Speed Wind Dir Waves Ship Positions

Helas

Last reported at 2014-Sep-13 17:18 UTC. Time now 2014-Sep-16 15:34 UTC.
Position N 52°12' W 005°49'.

Length 89 m; draft 5 m.

Type: Cargo ship. MMSI: 210031000.

Date/timePositionNaut miles runAvg speedWind from/ knotsBaromVisibWave heightAir tempDewpointWater temp
2014-Sep-13 17:18N 52°12' W 005°49'912.8
2014-Sep-13 16:34N 52°21' W 005°47'1312.6
2014-Sep-13 15:30N 52°34' W 005°43'99 9.6
2014-Sep-13 05:13N 54°12' W 005°19'6 9.4
2014-Sep-13 04:33N 54°18' W 005°17'9 9.1
2014-Sep-13 03:33N 54°27' W 005°15'9 8.8
2014-Sep-13 02:34N 54°36' W 005°20'10 9.5
2014-Sep-13 01:34N 54°45' W 005°25'1110.6
2014-Sep-13 00:33N 54°54' W 005°34'1311.9
2014-Sep-12 23:30N 55°04' W 005°46'1313.9
2014-Sep-12 22:33N 55°15' W 005°60'1313.0
2014-Sep-12 21:33N 55°24' W 006°17'1111.4
2014-Sep-12 20:33N 55°33' W 006°29'1110.5
2014-Sep-12 19:33N 55°42' W 006°39'9 9.3
2014-Sep-12 18:33N 55°51' W 006°35'38 8.8
2014-Sep-12 14:12N 56°18' W 005°47'16 1.0
2014-Sep-11 22:27N 56°32' W 005°33'19 9.6
2014-Sep-11 20:26N 56°16' W 005°51'1111.7
2014-Sep-11 19:31N 56°11' W 006°09'2512.2
2014-Sep-11 17:30N 55°54' W 006°39'1212.5
2014-Sep-11 16:33N 55°42' W 006°46'1413.5
2014-Sep-11 15:33N 55°32' W 006°31'1414.4
2014-Sep-11 14:33N 55°26' W 006°08'1413.7
2014-Sep-11 13:33N 55°16' W 005°52'1312.6
2014-Sep-11 12:33N 55°05' W 005°39'1110.9
2014-Sep-11 11:33N 54°56' W 005°28'10 9.8
2014-Sep-11 10:33N 54°48' W 005°18'9 8.9
2014-Sep-11 09:34N 54°41' W 005°11'10 9.6
2014-Sep-11 08:33N 54°31' W 005°08'1010.0
2014-Sep-11 07:33N 54°21' W 005°04'1110.9
2014-Sep-11 06:33N 54°11' W 005°00'1311.2
2014-Sep-11 05:24N 53°59' W 004°51'1112.8
2014-Sep-11 04:33N 53°55' W 004°34'1313.1
2014-Sep-11 03:33N 53°51' W 004°13'1313.3
2014-Sep-11 02:34N 53°48' W 003°51'1211.9
2014-Sep-11 01:33N 53°49' W 003°31'1211.8
2014-Sep-11 00:33N 53°55' W 003°13'1010.2
2014-Sep-10 23:34N 53°59' W 002°57'4 3.8
2014-Sep-10 22:32N 54°00' W 002°51'0 0.0
2014-Sep-10 21:32N 54°00' W 002°51'0 0.0
2014-Sep-10 20:32N 54°00' W 002°51'0 0.0
2014-Sep-10 19:20N 54°00' W 002°51'0 0.0
2014-Sep-10 18:32N 54°00' W 002°51'0 0.0
2014-Sep-10 17:29N 54°00' W 002°51'0 0.0
2014-Sep-10 16:29N 54°00' W 002°51'0 0.0
2014-Sep-10 15:29N 54°00' W 002°51'0 0.0
2014-Sep-10 14:29N 54°00' W 002°51'0 0.0
2014-Sep-10 13:29N 54°00' W 002°51'0 0.0
2014-Sep-10 12:31N 54°00' W 002°51'0 0.0
2014-Sep-10 11:31N 54°00' W 002°51'0 0.0
2014-Sep-10 10:28N 54°00' W 002°51'0 0.0
2014-Sep-10 09:28N 54°00' W 002°51'0 0.0
2014-Sep-10 08:28N 54°00' W 002°51'0 0.0
2014-Sep-10 07:31N 54°00' W 002°51'0 0.0
2014-Sep-10 06:25N 54°00' W 002°51'0 0.0
2014-Sep-10 05:25N 54°00' W 002°51'0 0.0
2014-Sep-10 04:31N 54°00' W 002°51'0 0.0
2014-Sep-10 03:31N 54°00' W 002°51'0 0.0
2014-Sep-10 02:31N 54°00' W 002°51'0 0.0
2014-Sep-10 01:28N 54°00' W 002°51'0 0.0
2014-Sep-10 00:31N 54°00' W 002°51'0 0.0
2014-Sep-09 23:34N 54°00' W 002°51'4 3.9
2014-Sep-09 22:33N 53°59' W 002°57'3 2.7
2014-Sep-09 21:33N 53°58' W 003°02'8 7.7
2014-Sep-09 20:33N 53°55' W 003°13'1 0.7
2014-Sep-09 19:33N 53°54' W 003°14'6 5.7
2014-Sep-09 18:33N 53°52' W 003°23'7 7.4
2014-Sep-09 17:34N 53°47' W 003°32'9 8.8
2014-Sep-09 16:33N 53°43' W 003°46'9 8.5
2014-Sep-09 15:31N 53°40' W 003°60'31 5.8
2014-Sep-09 10:09N 53°25' W 004°45'155 9.2
2014-Sep-08 17:26N 50°55' W 005°51'1110.4
2014-Sep-08 16:22N 50°44' W 005°52'910.7
2014-Sep-08 15:33N 50°36' W 005°52'1110.7
2014-Sep-08 14:34N 50°25' W 005°52'302 9.1
2014-Sep-07 05:34N 45°38' W 003°33'10 9.5
2014-Sep-07 04:30N 45°30' W 003°25'24 9.9
2014-Sep-07 02:06N 45°10' W 003°05'6 9.9
2014-Sep-07 01:31N 45°05' W 003°01'10 9.9
2014-Sep-07 00:33N 44°58' W 002°53'1010.2
2014-Sep-06 23:32N 44°49' W 002°45'1010.0
2014-Sep-06 22:33N 44°41' W 002°38'10 9.6
2014-Sep-06 21:33N 44°33' W 002°30'10 9.8
2014-Sep-06 20:33N 44°25' W 002°22'10 9.9
2014-Sep-06 19:32N 44°16' W 002°14'9 9.6
2014-Sep-06 18:34N 44°09' W 002°07'29 9.7
2014-Sep-06 15:33N 43°45' W 001°44'11 9.3
2014-Sep-06 14:21N 43°36' W 001°35'6 7.2
2014-Sep-06 13:33N 43°32' W 001°30'0 0.0
2014-Sep-06 12:26N 43°32' W 001°30'0 0.0
2014-Sep-06 11:29N 43°32' W 001°30'0 0.0
2014-Sep-06 10:26N 43°32' W 001°30'0 0.0
2014-Sep-06 09:32N 43°32' W 001°30'0 0.0
2014-Sep-06 08:32N 43°32' W 001°30'0 0.0
2014-Sep-06 07:29N 43°32' W 001°30'0 0.0
2014-Sep-06 06:26N 43°32' W 001°30'0 0.0
2014-Sep-06 04:32N 43°32' W 001°30'0 0.0
2014-Sep-06 03:32N 43°32' W 001°30'0 0.0
2014-Sep-06 02:32N 43°32' W 001°30'0 0.0
2014-Sep-06 01:32N 43°32' W 001°30'0 0.0
2014-Sep-06 00:32N 43°32' W 001°30'0 0.0
2014-Sep-05 23:32N 43°32' W 001°30'2 2.3
2014-Sep-05 22:33N 43°32' W 001°33'2 2.2
2014-Sep-05 21:33N 43°34' W 001°34'0 0.0
2014-Sep-05 20:33N 43°34' W 001°34'0 0.0
2014-Sep-05 19:33N 43°34' W 001°34'0 0.0
2014-Sep-05 18:24N 43°34' W 001°34'0 0.0
2014-Sep-05 17:33N 43°34' W 001°34'0 0.0
2014-Sep-05 16:30N 43°34' W 001°34'0 0.0
2014-Sep-05 15:33N 43°34' W 001°34'0 0.0
2014-Sep-05 14:24N 43°34' W 001°34'0 0.0
2014-Sep-05 13:33N 43°34' W 001°34'0 0.0
2014-Sep-05 12:30N 43°34' W 001°34'0 0.0
2014-Sep-05 11:30N 43°34' W 001°34'0 0.0
2014-Sep-05 10:33N 43°34' W 001°34'0 0.0
2014-Sep-05 09:33N 43°34' W 001°34'0 0.0
2014-Sep-05 08:32N 43°34' W 001°34'0 0.0
2014-Sep-05 07:14N 43°34' W 001°34'0 0.0
2014-Sep-05 06:32N 43°34' W 001°34'0 0.0
2014-Sep-05 05:32N 43°34' W 001°34'0 0.0
2014-Sep-05 04:29N 43°34' W 001°34'0 0.0
2014-Sep-05 03:23N 43°34' W 001°34'0 0.0
2014-Sep-05 02:32N 43°34' W 001°34'0 0.0
2014-Sep-05 01:29N 43°34' W 001°34'0 0.0
2014-Sep-05 00:32N 43°34' W 001°34'7 6.7
2014-Sep-04 23:34N 43°34' W 001°43'  
Track history (hours):
 
Tides and Currents Weather Stations Pressure Air Temp Water Temp Dewpoint Dewpoint Depression Visibility Wind Speed Wind Dir Waves Ship Positions

Helas

Last reported at 2014-Sep-13 17:18 UTC. Time now 2014-Sep-16 15:34 UTC.
Position N 52°12' W 005°49'.

Length 89 m; draft 5 m.

Type: Cargo ship. MMSI: 210031000.

Date/timePositionNaut miles runAvg speedWind from/ knotsBaromVisibWave heightAir tempDewpointWater temp
2014-Sep-13 17:18N 52°12' W 005°49'912.8
2014-Sep-13 16:34N 52°21' W 005°47'1312.6
2014-Sep-13 15:30N 52°34' W 005°43'99 9.6
2014-Sep-13 05:13N 54°12' W 005°19'6 9.4
2014-Sep-13 04:33N 54°18' W 005°17'9 9.1
2014-Sep-13 03:33N 54°27' W 005°15'9 8.8
2014-Sep-13 02:34N 54°36' W 005°20'10 9.5
2014-Sep-13 01:34N 54°45' W 005°25'1110.6
2014-Sep-13 00:33N 54°54' W 005°34'1311.9
2014-Sep-12 23:30N 55°04' W 005°46'1313.9
2014-Sep-12 22:33N 55°15' W 005°60'1313.0
2014-Sep-12 21:33N 55°24' W 006°17'1111.4
2014-Sep-12 20:33N 55°33' W 006°29'1110.5
2014-Sep-12 19:33N 55°42' W 006°39'9 9.3
2014-Sep-12 18:33N 55°51' W 006°35'38 8.8
2014-Sep-12 14:12N 56°18' W 005°47'16 1.0
2014-Sep-11 22:27N 56°32' W 005°33'19 9.6
2014-Sep-11 20:26N 56°16' W 005°51'1111.7
2014-Sep-11 19:31N 56°11' W 006°09'2512.2
2014-Sep-11 17:30N 55°54' W 006°39'1212.5
2014-Sep-11 16:33N 55°42' W 006°46'1413.5
2014-Sep-11 15:33N 55°32' W 006°31'1414.4
2014-Sep-11 14:33N 55°26' W 006°08'1413.7
2014-Sep-11 13:33N 55°16' W 005°52'1312.6
2014-Sep-11 12:33N 55°05' W 005°39'1110.9
2014-Sep-11 11:33N 54°56' W 005°28'10 9.8
2014-Sep-11 10:33N 54°48' W 005°18'9 8.9
2014-Sep-11 09:34N 54°41' W 005°11'10 9.6
2014-Sep-11 08:33N 54°31' W 005°08'1010.0
2014-Sep-11 07:33N 54°21' W 005°04'1110.9
2014-Sep-11 06:33N 54°11' W 005°00'1311.2
2014-Sep-11 05:24N 53°59' W 004°51'1112.8
2014-Sep-11 04:33N 53°55' W 004°34'1313.1
2014-Sep-11 03:33N 53°51' W 004°13'1313.3
2014-Sep-11 02:34N 53°48' W 003°51'1211.9
2014-Sep-11 01:33N 53°49' W 003°31'1211.8
2014-Sep-11 00:33N 53°55' W 003°13'1010.2
2014-Sep-10 23:34N 53°59' W 002°57'4 3.8
2014-Sep-10 22:32N 54°00' W 002°51'0 0.0
2014-Sep-10 21:32N 54°00' W 002°51'0 0.0
2014-Sep-10 20:32N 54°00' W 002°51'0 0.0
2014-Sep-10 19:20N 54°00' W 002°51'0 0.0
2014-Sep-10 18:32N 54°00' W 002°51'0 0.0
2014-Sep-10 17:29N 54°00' W 002°51'0 0.0
2014-Sep-10 16:29N 54°00' W 002°51'0 0.0
2014-Sep-10 15:29N 54°00' W 002°51'0 0.0
2014-Sep-10 14:29N 54°00' W 002°51'0 0.0
2014-Sep-10 13:29N 54°00' W 002°51'0 0.0
2014-Sep-10 12:31N 54°00' W 002°51'0 0.0
2014-Sep-10 11:31N 54°00' W 002°51'0 0.0
2014-Sep-10 10:28N 54°00' W 002°51'0 0.0
2014-Sep-10 09:28N 54°00' W 002°51'0 0.0
2014-Sep-10 08:28N 54°00' W 002°51'0 0.0
2014-Sep-10 07:31N 54°00' W 002°51'0 0.0
2014-Sep-10 06:25N 54°00' W 002°51'0 0.0
2014-Sep-10 05:25N 54°00' W 002°51'0 0.0
2014-Sep-10 04:31N 54°00' W 002°51'0 0.0
2014-Sep-10 03:31N 54°00' W 002°51'0 0.0
2014-Sep-10 02:31N 54°00' W 002°51'0 0.0
2014-Sep-10 01:28N 54°00' W 002°51'0 0.0
2014-Sep-10 00:31N 54°00' W 002°51'0 0.0
2014-Sep-09 23:34N 54°00' W 002°51'4 3.9
2014-Sep-09 22:33N 53°59' W 002°57'3 2.7
2014-Sep-09 21:33N 53°58' W 003°02'8 7.7
2014-Sep-09 20:33N 53°55' W 003°13'1 0.7
2014-Sep-09 19:33N 53°54' W 003°14'6 5.7
2014-Sep-09 18:33N 53°52' W 003°23'7 7.4
2014-Sep-09 17:34N 53°47' W 003°32'9 8.8
2014-Sep-09 16:33N 53°43' W 003°46'9 8.5
2014-Sep-09 15:31N 53°40' W 003°60'31 5.8
2014-Sep-09 10:09N 53°25' W 004°45'155 9.2
2014-Sep-08 17:26N 50°55' W 005°51'1110.4
2014-Sep-08 16:22N 50°44' W 005°52'910.7
2014-Sep-08 15:33N 50°36' W 005°52'1110.7
2014-Sep-08 14:34N 50°25' W 005°52'302 9.1
2014-Sep-07 05:34N 45°38' W 003°33'10 9.5
2014-Sep-07 04:30N 45°30' W 003°25'24 9.9
2014-Sep-07 02:06N 45°10' W 003°05'6 9.9
2014-Sep-07 01:31N 45°05' W 003°01'10 9.9
2014-Sep-07 00:33N 44°58' W 002°53'1010.2
2014-Sep-06 23:32N 44°49' W 002°45'1010.0
2014-Sep-06 22:33N 44°41' W 002°38'10 9.6
2014-Sep-06 21:33N 44°33' W 002°30'10 9.8
2014-Sep-06 20:33N 44°25' W 002°22'10 9.9
2014-Sep-06 19:32N 44°16' W 002°14'9 9.6
2014-Sep-06 18:34N 44°09' W 002°07'29 9.7
2014-Sep-06 15:33N 43°45' W 001°44'11 9.3
2014-Sep-06 14:21N 43°36' W 001°35'6 7.2
2014-Sep-06 13:33N 43°32' W 001°30'0 0.0
2014-Sep-06 12:26N 43°32' W 001°30'0 0.0
2014-Sep-06 11:29N 43°32' W 001°30'0 0.0
2014-Sep-06 10:26N 43°32' W 001°30'0 0.0
2014-Sep-06 09:32N 43°32' W 001°30'0 0.0
2014-Sep-06 08:32N 43°32' W 001°30'0 0.0
2014-Sep-06 07:29N 43°32' W 001°30'0 0.0
2014-Sep-06 06:26N 43°32' W 001°30'0 0.0
2014-Sep-06 04:32N 43°32' W 001°30'0 0.0
2014-Sep-06 03:32N 43°32' W 001°30'0 0.0
2014-Sep-06 02:32N 43°32' W 001°30'0 0.0
2014-Sep-06 01:32N 43°32' W 001°30'0 0.0
2014-Sep-06 00:32N 43°32' W 001°30'0 0.0
2014-Sep-05 23:32N 43°32' W 001°30'2 2.3
2014-Sep-05 22:33N 43°32' W 001°33'2 2.2
2014-Sep-05 21:33N 43°34' W 001°34'0 0.0
2014-Sep-05 20:33N 43°34' W 001°34'0 0.0
2014-Sep-05 19:33N 43°34' W 001°34'0 0.0
2014-Sep-05 18:24N 43°34' W 001°34'0 0.0
2014-Sep-05 17:33N 43°34' W 001°34'0 0.0
2014-Sep-05 16:30N 43°34' W 001°34'0 0.0
2014-Sep-05 15:33N 43°34' W 001°34'0 0.0
2014-Sep-05 14:24N 43°34' W 001°34'0 0.0
2014-Sep-05 13:33N 43°34' W 001°34'0 0.0
2014-Sep-05 12:30N 43°34' W 001°34'0 0.0
2014-Sep-05 11:30N 43°34' W 001°34'0 0.0
2014-Sep-05 10:33N 43°34' W 001°34'0 0.0
2014-Sep-05 09:33N 43°34' W 001°34'0 0.0
2014-Sep-05 08:32N 43°34' W 001°34'0 0.0
2014-Sep-05 07:14N 43°34' W 001°34'0 0.0
2014-Sep-05 06:32N 43°34' W 001°34'0 0.0
2014-Sep-05 05:32N 43°34' W 001°34'0 0.0
2014-Sep-05 04:29N 43°34' W 001°34'0 0.0
2014-Sep-05 03:23N 43°34' W 001°34'0 0.0
2014-Sep-05 02:32N 43°34' W 001°34'0 0.0
2014-Sep-05 01:29N 43°34' W 001°34'0 0.0
2014-Sep-05 00:32N 43°34' W 001°34'7 6.7
2014-Sep-04 23:34N 43°34' W 001°43'  

Dump ship's entire track history